sensor_id;sensor_type;location;lat;lon;timestamp;temperature;humidity
15617;DHT22;7908;51.688;7.130;2023-12-04T00:01:27;0.50;99.90
15617;DHT22;7908;51.688;7.130;2023-12-04T00:03:57;0.60;99.90
15617;DHT22;7908;51.688;7.130;2023-12-04T00:06:26;0.60;99.90
15617;DHT22;7908;51.688;7.130;2023-12-04T00:08:54;0.50;99.90
15617;DHT22;7908;51.688;7.130;2023-12-04T00:11:24;0.60;99.90
15617;DHT22;7908;51.688;7.130;2023-12-04T00:13:55;0.50;99.90
15617;DHT22;7908;51.688;7.130;2023-12-04T00:16:24;0.50;99.90
15617;DHT22;7908;51.688;7.130;2023-12-04T00:18:52;0.50;99.90
15617;DHT22;7908;51.688;7.130;2023-12-04T00:21:21;0.50;99.90
15617;DHT22;7908;51.688;7.130;2023-12-04T00:23:50;0.50;99.90
15617;DHT22;7908;51.688;7.130;2023-12-04T00:26:19;0.50;99.90
15617;DHT22;7908;51.688;7.130;2023-12-04T00:28:49;0.50;99.90
15617;DHT22;7908;51.688;7.130;2023-12-04T00:31:18;0.50;99.90
15617;DHT22;7908;51.688;7.130;2023-12-04T00:33:46;0.50;99.90
15617;DHT22;7908;51.688;7.130;2023-12-04T00:36:15;0.50;99.90
15617;DHT22;7908;51.688;7.130;2023-12-04T00:38:43;0.50;99.90
15617;DHT22;7908;51.688;7.130;2023-12-04T00:41:12;0.50;99.90
15617;DHT22;7908;51.688;7.130;2023-12-04T00:43:43;0.50;99.90
15617;DHT22;7908;51.688;7.130;2023-12-04T00:46:14;0.50;99.90
15617;DHT22;7908;51.688;7.130;2023-12-04T00:48:43;0.50;99.90
15617;DHT22;7908;51.688;7.130;2023-12-04T00:51:13;0.50;99.90
15617;DHT22;7908;51.688;7.130;2023-12-04T00:53:41;0.50;99.90
15617;DHT22;7908;51.688;7.130;2023-12-04T00:56:10;0.40;99.90
15617;DHT22;7908;51.688;7.130;2023-12-04T00:58:41;0.50;99.90
15617;DHT22;7908;51.688;7.130;2023-12-04T01:01:09;0.40;99.90
15617;DHT22;7908;51.688;7.130;2023-12-04T01:03:39;0.50;99.90
15617;DHT22;7908;51.688;7.130;2023-12-04T01:06:08;0.50;99.90
15617;DHT22;7908;51.688;7.130;2023-12-04T01:08:36;0.50;99.90
15617;DHT22;7908;51.688;7.130;2023-12-04T01:11:05;0.50;99.90
15617;DHT22;7908;51.688;7.130;2023-12-04T01:13:34;0.50;99.90
15617;DHT22;7908;51.688;7.130;2023-12-04T01:16:02;0.50;99.90
15617;DHT22;7908;51.688;7.130;2023-12-04T01:18:31;0.50;99.90
15617;DHT22;7908;51.688;7.130;2023-12-04T01:21:02;0.50;99.90
15617;DHT22;7908;51.688;7.130;2023-12-04T01:23:30;0.50;99.90
15617;DHT22;7908;51.688;7.130;2023-12-04T01:25:59;0.50;99.90
15617;DHT22;7908;51.688;7.130;2023-12-04T01:28:28;0.50;99.90
15617;DHT22;7908;51.688;7.130;2023-12-04T01:30:57;0.50;99.90
15617;DHT22;7908;51.688;7.130;2023-12-04T01:33:25;0.50;99.90
15617;DHT22;7908;51.688;7.130;2023-12-04T01:35:54;0.50;99.90
15617;DHT22;7908;51.688;7.130;2023-12-04T01:38:24;0.50;99.90
15617;DHT22;7908;51.688;7.130;2023-12-04T01:40:52;0.50;99.90
15617;DHT22;7908;51.688;7.130;2023-12-04T01:43:21;0.50;99.90
15617;DHT22;7908;51.688;7.130;2023-12-04T01:45:49;0.50;99.90
15617;DHT22;7908;51.688;7.130;2023-12-04T01:48:20;0.50;99.90
15617;DHT22;7908;51.688;7.130;2023-12-04T01:50:49;0.50;99.90
15617;DHT22;7908;51.688;7.130;2023-12-04T01:53:18;0.50;99.90
15617;DHT22;7908;51.688;7.130;2023-12-04T01:55:48;0.50;99.90
15617;DHT22;7908;51.688;7.130;2023-12-04T01:58:17;0.50;99.90
15617;DHT22;7908;51.688;7.130;2023-12-04T02:00:45;0.40;99.90
15617;DHT22;7908;51.688;7.130;2023-12-04T02:03:14;0.40;99.90
15617;DHT22;7908;51.688;7.130;2023-12-04T02:05:43;0.40;99.90
15617;DHT22;7908;51.688;7.130;2023-12-04T02:08:12;0.40;99.90
15617;DHT22;7908;51.688;7.130;2023-12-04T02:10:41;0.40;99.90
15617;DHT22;7908;51.688;7.130;2023-12-04T02:13:11;0.40;99.90
15617;DHT22;7908;51.688;7.130;2023-12-04T02:15:40;0.40;99.90
15617;DHT22;7908;51.688;7.130;2023-12-04T02:18:08;0.40;99.90
15617;DHT22;7908;51.688;7.130;2023-12-04T02:20:37;0.40;99.90
15617;DHT22;7908;51.688;7.130;2023-12-04T02:23:05;0.30;99.90
15617;DHT22;7908;51.688;7.130;2023-12-04T02:25:35;0.30;99.90
15617;DHT22;7908;51.688;7.130;2023-12-04T02:28:05;0.20;99.90
15617;DHT22;7908;51.688;7.130;2023-12-04T02:30:34;0.20;99.90
15617;DHT22;7908;51.688;7.130;2023-12-04T02:33:05;0.20;99.90
15617;DHT22;7908;51.688;7.130;2023-12-04T02:35:34;0.20;99.90
15617;DHT22;7908;51.688;7.130;2023-12-04T02:38:03;0.20;99.90
15617;DHT22;7908;51.688;7.130;2023-12-04T02:40:31;0.20;99.90
15617;DHT22;7908;51.688;7.130;2023-12-04T02:43:02;0.20;99.90
15617;DHT22;7908;51.688;7.130;2023-12-04T02:45:30;0.20;99.90
15617;DHT22;7908;51.688;7.130;2023-12-04T02:47:59;0.20;99.90
15617;DHT22;7908;51.688;7.130;2023-12-04T02:50:27;0.30;99.90
15617;DHT22;7908;51.688;7.130;2023-12-04T02:52:56;0.30;99.90
15617;DHT22;7908;51.688;7.130;2023-12-04T02:55:25;0.20;99.90
15617;DHT22;7908;51.688;7.130;2023-12-04T02:57:54;0.20;99.90
15617;DHT22;7908;51.688;7.130;2023-12-04T03:00:24;0.20;99.90
15617;DHT22;7908;51.688;7.130;2023-12-04T03:02:53;0.20;99.90
15617;DHT22;7908;51.688;7.130;2023-12-04T03:05:21;0.20;99.90
15617;DHT22;7908;51.688;7.130;2023-12-04T03:07:50;0.30;99.90
15617;DHT22;7908;51.688;7.130;2023-12-04T03:10:18;0.30;99.90
15617;DHT22;7908;51.688;7.130;2023-12-04T03:12:47;0.40;99.90
15617;DHT22;7908;51.688;7.130;2023-12-04T03:15:15;0.40;99.90
15617;DHT22;7908;51.688;7.130;2023-12-04T03:17:45;0.40;99.90
15617;DHT22;7908;51.688;7.130;2023-12-04T03:20:14;0.40;99.90
15617;DHT22;7908;51.688;7.130;2023-12-04T03:22:42;0.40;99.90
15617;DHT22;7908;51.688;7.130;2023-12-04T03:25:11;0.40;99.90
15617;DHT22;7908;51.688;7.130;2023-12-04T03:27:39;0.50;99.90
15617;DHT22;7908;51.688;7.130;2023-12-04T03:30:08;0.50;99.90
15617;DHT22;7908;51.688;7.130;2023-12-04T03:32:37;0.50;99.90
15617;DHT22;7908;51.688;7.130;2023-12-04T03:35:07;0.50;99.90
15617;DHT22;7908;51.688;7.130;2023-12-04T03:37:36;0.50;99.90
15617;DHT22;7908;51.688;7.130;2023-12-04T03:40:05;0.50;99.90
15617;DHT22;7908;51.688;7.130;2023-12-04T03:42:33;0.50;99.90
15617;DHT22;7908;51.688;7.130;2023-12-04T03:45:02;0.50;99.90
15617;DHT22;7908;51.688;7.130;2023-12-04T03:47:30;0.50;99.90
15617;DHT22;7908;51.688;7.130;2023-12-04T03:49:59;0.50;99.90
15617;DHT22;7908;51.688;7.130;2023-12-04T03:52:29;0.50;99.90
15617;DHT22;7908;51.688;7.130;2023-12-04T03:54:58;0.50;99.90
15617;DHT22;7908;51.688;7.130;2023-12-04T03:57:27;0.50;99.90
15617;DHT22;7908;51.688;7.130;2023-12-04T03:59:56;0.60;99.90
15617;DHT22;7908;51.688;7.130;2023-12-04T04:02:24;0.50;99.90
15617;DHT22;7908;51.688;7.130;2023-12-04T04:04:53;0.60;99.90
15617;DHT22;7908;51.688;7.130;2023-12-04T04:07:22;0.60;99.90
15617;DHT22;7908;51.688;7.130;2023-12-04T04:09:52;0.60;99.90
15617;DHT22;7908;51.688;7.130;2023-12-04T04:12:21;0.60;99.90
15617;DHT22;7908;51.688;7.130;2023-12-04T04:14:49;0.60;99.90
15617;DHT22;7908;51.688;7.130;2023-12-04T04:17:17;0.60;99.90
15617;DHT22;7908;51.688;7.130;2023-12-04T04:19:46;0.60;99.90
15617;DHT22;7908;51.688;7.130;2023-12-04T04:22:15;0.60;99.90
15617;DHT22;7908;51.688;7.130;2023-12-04T04:24:43;0.70;99.90
15617;DHT22;7908;51.688;7.130;2023-12-04T04:27:13;0.70;99.90
15617;DHT22;7908;51.688;7.130;2023-12-04T04:29:41;0.70;99.90
15617;DHT22;7908;51.688;7.130;2023-12-04T04:32:10;0.70;99.90
15617;DHT22;7908;51.688;7.130;2023-12-04T04:34:40;0.70;99.90
15617;DHT22;7908;51.688;7.130;2023-12-04T04:37:09;0.70;99.90
15617;DHT22;7908;51.688;7.130;2023-12-04T04:39:39;0.70;99.90
15617;DHT22;7908;51.688;7.130;2023-12-04T04:42:07;0.70;99.90
15617;DHT22;7908;51.688;7.130;2023-12-04T04:44:37;0.70;99.90
15617;DHT22;7908;51.688;7.130;2023-12-04T04:47:06;0.70;99.90
15617;DHT22;7908;51.688;7.130;2023-12-04T04:49:34;0.70;99.90
15617;DHT22;7908;51.688;7.130;2023-12-04T04:52:03;0.60;99.90
15617;DHT22;7908;51.688;7.130;2023-12-04T04:54:32;0.60;99.90
15617;DHT22;7908;51.688;7.130;2023-12-04T04:57:00;0.60;99.90
15617;DHT22;7908;51.688;7.130;2023-12-04T04:59:29;0.60;99.90
15617;DHT22;7908;51.688;7.130;2023-12-04T05:02:00;0.60;99.90
15617;DHT22;7908;51.688;7.130;2023-12-04T05:04:28;0.60;99.90
15617;DHT22;7908;51.688;7.130;2023-12-04T05:06:57;0.60;99.90
15617;DHT22;7908;51.688;7.130;2023-12-04T05:09:26;0.60;99.90
15617;DHT22;7908;51.688;7.130;2023-12-04T05:11:54;0.60;99.90
15617;DHT22;7908;51.688;7.130;2023-12-04T05:14:23;0.60;99.90
15617;DHT22;7908;51.688;7.130;2023-12-04T05:16:51;0.60;99.90
15617;DHT22;7908;51.688;7.130;2023-12-04T05:19:21;0.60;99.90
15617;DHT22;7908;51.688;7.130;2023-12-04T05:21:50;0.60;99.90
15617;DHT22;7908;51.688;7.130;2023-12-04T05:24:18;0.60;99.90
15617;DHT22;7908;51.688;7.130;2023-12-04T05:26:47;0.60;99.90
15617;DHT22;7908;51.688;7.130;2023-12-04T05:29:18;0.70;99.90
15617;DHT22;7908;51.688;7.130;2023-12-04T05:31:47;0.60;99.90
15617;DHT22;7908;51.688;7.130;2023-12-04T05:34:16;0.60;99.90
15617;DHT22;7908;51.688;7.130;2023-12-04T05:36:46;0.60;99.90
15617;DHT22;7908;51.688;7.130;2023-12-04T05:39:14;0.60;99.90
15617;DHT22;7908;51.688;7.130;2023-12-04T05:41:43;0.70;99.90
15617;DHT22;7908;51.688;7.130;2023-12-04T05:44:12;0.70;99.90
15617;DHT22;7908;51.688;7.130;2023-12-04T05:46:40;0.70;99.90
15617;DHT22;7908;51.688;7.130;2023-12-04T05:49:09;0.70;99.90
15617;DHT22;7908;51.688;7.130;2023-12-04T05:51:37;0.70;99.90
15617;DHT22;7908;51.688;7.130;2023-12-04T05:54:07;0.70;99.90
15617;DHT22;7908;51.688;7.130;2023-12-04T05:56:36;0.70;99.90
15617;DHT22;7908;51.688;7.130;2023-12-04T05:59:05;0.70;99.90
15617;DHT22;7908;51.688;7.130;2023-12-04T06:01:33;0.70;99.90
15617;DHT22;7908;51.688;7.130;2023-12-04T06:04:01;0.70;99.90
15617;DHT22;7908;51.688;7.130;2023-12-04T06:06:31;0.70;99.90
15617;DHT22;7908;51.688;7.130;2023-12-04T06:08:59;0.80;99.90
15617;DHT22;7908;51.688;7.130;2023-12-04T06:11:29;0.80;99.90
15617;DHT22;7908;51.688;7.130;2023-12-04T06:13:58;0.80;99.90
15617;DHT22;7908;51.688;7.130;2023-12-04T06:16:26;0.80;99.90
15617;DHT22;7908;51.688;7.130;2023-12-04T06:18:54;0.70;99.90
15617;DHT22;7908;51.688;7.130;2023-12-04T06:21:23;0.70;99.90
15617;DHT22;7908;51.688;7.130;2023-12-04T06:23:52;0.70;99.90
15617;DHT22;7908;51.688;7.130;2023-12-04T06:26:21;0.70;99.90
15617;DHT22;7908;51.688;7.130;2023-12-04T06:28:51;0.70;99.90
15617;DHT22;7908;51.688;7.130;2023-12-04T06:31:20;0.70;99.90
15617;DHT22;7908;51.688;7.130;2023-12-04T06:33:48;0.80;99.90
15617;DHT22;7908;51.688;7.130;2023-12-04T06:36:17;0.80;99.90
15617;DHT22;7908;51.688;7.130;2023-12-04T06:38:46;0.80;99.90
15617;DHT22;7908;51.688;7.130;2023-12-04T06:41:15;0.80;99.90
15617;DHT22;7908;51.688;7.130;2023-12-04T06:43:45;0.80;99.90
15617;DHT22;7908;51.688;7.130;2023-12-04T06:46:20;0.80;99.90
15617;DHT22;7908;51.688;7.130;2023-12-04T06:48:49;0.90;99.90
15617;DHT22;7908;51.688;7.130;2023-12-04T06:51:19;0.80;99.90
15617;DHT22;7908;51.688;7.130;2023-12-04T06:53:48;0.90;99.90
15617;DHT22;7908;51.688;7.130;2023-12-04T06:56:16;0.90;99.90
15617;DHT22;7908;51.688;7.130;2023-12-04T06:58:46;0.90;99.90
15617;DHT22;7908;51.688;7.130;2023-12-04T07:01:16;1.00;99.90
15617;DHT22;7908;51.688;7.130;2023-12-04T07:03:50;0.90;99.90
15617;DHT22;7908;51.688;7.130;2023-12-04T07:06:18;1.00;99.90
15617;DHT22;7908;51.688;7.130;2023-12-04T07:08:47;1.00;99.90
15617;DHT22;7908;51.688;7.130;2023-12-04T07:11:15;1.00;99.90
15617;DHT22;7908;51.688;7.130;2023-12-04T07:13:44;0.90;99.90
15617;DHT22;7908;51.688;7.130;2023-12-04T07:16:16;1.00;99.90
15617;DHT22;7908;51.688;7.130;2023-12-04T07:18:44;1.00;99.90
15617;DHT22;7908;51.688;7.130;2023-12-04T07:21:14;0.90;99.90
15617;DHT22;7908;51.688;7.130;2023-12-04T07:23:43;0.90;99.90
15617;DHT22;7908;51.688;7.130;2023-12-04T07:26:12;0.90;99.90
15617;DHT22;7908;51.688;7.130;2023-12-04T07:28:44;0.90;99.90
15617;DHT22;7908;51.688;7.130;2023-12-04T07:31:12;0.90;99.90
15617;DHT22;7908;51.688;7.130;2023-12-04T07:33:41;0.90;99.90
15617;DHT22;7908;51.688;7.130;2023-12-04T07:36:10;1.00;99.90
15617;DHT22;7908;51.688;7.130;2023-12-04T07:38:40;1.00;99.90
15617;DHT22;7908;51.688;7.130;2023-12-04T07:41:09;1.00;99.90
15617;DHT22;7908;51.688;7.130;2023-12-04T07:43:37;1.00;99.90
15617;DHT22;7908;51.688;7.130;2023-12-04T07:46:08;1.00;99.90
15617;DHT22;7908;51.688;7.130;2023-12-04T07:48:37;1.00;99.90
15617;DHT22;7908;51.688;7.130;2023-12-04T07:51:07;1.00;99.90
15617;DHT22;7908;51.688;7.130;2023-12-04T07:53:36;1.00;99.90
15617;DHT22;7908;51.688;7.130;2023-12-04T07:56:06;1.00;99.90
15617;DHT22;7908;51.688;7.130;2023-12-04T07:58:38;1.00;99.90
15617;DHT22;7908;51.688;7.130;2023-12-04T08:01:07;1.10;99.90
15617;DHT22;7908;51.688;7.130;2023-12-04T08:03:36;1.10;99.90
15617;DHT22;7908;51.688;7.130;2023-12-04T08:06:05;1.10;99.90
15617;DHT22;7908;51.688;7.130;2023-12-04T08:08:34;1.20;99.90
15617;DHT22;7908;51.688;7.130;2023-12-04T08:11:02;1.20;99.90
15617;DHT22;7908;51.688;7.130;2023-12-04T08:13:32;1.20;99.90
15617;DHT22;7908;51.688;7.130;2023-12-04T08:16:03;1.20;99.90
15617;DHT22;7908;51.688;7.130;2023-12-04T08:18:32;1.20;99.90
15617;DHT22;7908;51.688;7.130;2023-12-04T08:21:01;1.20;99.90
15617;DHT22;7908;51.688;7.130;2023-12-04T08:23:31;1.20;99.90
15617;DHT22;7908;51.688;7.130;2023-12-04T08:26:00;1.20;99.90
15617;DHT22;7908;51.688;7.130;2023-12-04T08:28:34;1.30;99.90
15617;DHT22;7908;51.688;7.130;2023-12-04T08:31:04;1.30;99.90
15617;DHT22;7908;51.688;7.130;2023-12-04T08:33:35;1.30;99.90
15617;DHT22;7908;51.688;7.130;2023-12-04T08:36:04;1.30;99.90
15617;DHT22;7908;51.688;7.130;2023-12-04T08:38:32;1.30;99.90
15617;DHT22;7908;51.688;7.130;2023-12-04T08:41:01;1.40;99.90
15617;DHT22;7908;51.688;7.130;2023-12-04T08:43:30;1.40;99.90
15617;DHT22;7908;51.688;7.130;2023-12-04T08:46:00;1.40;99.90
15617;DHT22;7908;51.688;7.130;2023-12-04T08:48:29;1.40;99.90
15617;DHT22;7908;51.688;7.130;2023-12-04T08:50:58;1.40;99.90
15617;DHT22;7908;51.688;7.130;2023-12-04T08:53:26;1.30;99.90
15617;DHT22;7908;51.688;7.130;2023-12-04T08:55:54;1.40;99.90
15617;DHT22;7908;51.688;7.130;2023-12-04T08:58:24;1.50;99.90
15617;DHT22;7908;51.688;7.130;2023-12-04T09:00:54;1.40;99.90
15617;DHT22;7908;51.688;7.130;2023-12-04T09:03:24;1.40;99.90
15617;DHT22;7908;51.688;7.130;2023-12-04T09:05:58;1.50;99.90
15617;DHT22;7908;51.688;7.130;2023-12-04T09:08:27;1.50;99.90
15617;DHT22;7908;51.688;7.130;2023-12-04T09:11:05;1.60;99.90
15617;DHT22;7908;51.688;7.130;2023-12-04T09:13:37;1.60;99.90
15617;DHT22;7908;51.688;7.130;2023-12-04T09:16:06;1.60;99.90
15617;DHT22;7908;51.688;7.130;2023-12-04T09:18:36;1.60;99.90
15617;DHT22;7908;51.688;7.130;2023-12-04T09:21:05;1.60;99.90
15617;DHT22;7908;51.688;7.130;2023-12-04T09:23:35;1.60;99.90
15617;DHT22;7908;51.688;7.130;2023-12-04T09:26:08;1.60;99.90
15617;DHT22;7908;51.688;7.130;2023-12-04T09:28:39;1.60;99.90
15617;DHT22;7908;51.688;7.130;2023-12-04T09:31:09;1.60;99.90
15617;DHT22;7908;51.688;7.130;2023-12-04T09:33:39;1.70;99.90
15617;DHT22;7908;51.688;7.130;2023-12-04T09:36:08;1.60;99.90
15617;DHT22;7908;51.688;7.130;2023-12-04T09:38:37;1.60;99.90
15617;DHT22;7908;51.688;7.130;2023-12-04T09:41:06;1.60;99.90
15617;DHT22;7908;51.688;7.130;2023-12-04T09:43:37;1.70;99.90
15617;DHT22;7908;51.688;7.130;2023-12-04T09:46:06;1.70;99.90
15617;DHT22;7908;51.688;7.130;2023-12-04T09:48:35;1.70;99.90
15617;DHT22;7908;51.688;7.130;2023-12-04T09:51:07;1.70;99.90
15617;DHT22;7908;51.688;7.130;2023-12-04T09:53:37;1.70;99.90
15617;DHT22;7908;51.688;7.130;2023-12-04T09:56:08;1.70;99.90
15617;DHT22;7908;51.688;7.130;2023-12-04T09:58:38;1.70;99.90
15617;DHT22;7908;51.688;7.130;2023-12-04T10:01:07;1.70;99.90
15617;DHT22;7908;51.688;7.130;2023-12-04T10:03:37;1.70;99.90
15617;DHT22;7908;51.688;7.130;2023-12-04T10:06:11;1.70;99.90
15617;DHT22;7908;51.688;7.130;2023-12-04T10:08:44;1.70;99.90
15617;DHT22;7908;51.688;7.130;2023-12-04T10:11:13;1.70;99.90
15617;DHT22;7908;51.688;7.130;2023-12-04T10:13:41;1.70;99.90
15617;DHT22;7908;51.688;7.130;2023-12-04T10:16:32;1.70;99.90
15617;DHT22;7908;51.688;7.130;2023-12-04T10:19:16;1.60;99.90
15617;DHT22;7908;51.688;7.130;2023-12-04T10:21:50;1.70;99.90
15617;DHT22;7908;51.688;7.130;2023-12-04T10:24:28;1.60;99.90
15617;DHT22;7908;51.688;7.130;2023-12-04T10:26:57;1.60;99.90
15617;DHT22;7908;51.688;7.130;2023-12-04T10:29:26;1.70;99.90
15617;DHT22;7908;51.688;7.130;2023-12-04T10:31:55;1.70;99.90
15617;DHT22;7908;51.688;7.130;2023-12-04T10:34:28;1.70;99.90
15617;DHT22;7908;51.688;7.130;2023-12-04T10:37:03;1.70;99.90
15617;DHT22;7908;51.688;7.130;2023-12-04T10:39:49;1.70;99.90
15617;DHT22;7908;51.688;7.130;2023-12-04T10:42:25;1.70;99.90
15617;DHT22;7908;51.688;7.130;2023-12-04T10:44:54;1.80;99.90
15617;DHT22;7908;51.688;7.130;2023-12-04T10:47:25;1.90;99.90
15617;DHT22;7908;51.688;7.130;2023-12-04T10:49:54;1.90;99.90
15617;DHT22;7908;51.688;7.130;2023-12-04T10:52:27;1.90;99.90
15617;DHT22;7908;51.688;7.130;2023-12-04T10:54:56;1.90;99.90
15617;DHT22;7908;51.688;7.130;2023-12-04T10:57:31;2.00;99.90
15617;DHT22;7908;51.688;7.130;2023-12-04T11:00:01;2.00;99.90
15617;DHT22;7908;51.688;7.130;2023-12-04T11:02:34;2.00;99.90
15617;DHT22;7908;51.688;7.130;2023-12-04T11:05:07;2.00;99.90
15617;DHT22;7908;51.688;7.130;2023-12-04T11:07:43;2.00;99.90
15617;DHT22;7908;51.688;7.130;2023-12-04T11:10:32;2.00;99.90
15617;DHT22;7908;51.688;7.130;2023-12-04T11:13:12;2.00;99.90
15617;DHT22;7908;51.688;7.130;2023-12-04T11:15:42;2.00;99.90
15617;DHT22;7908;51.688;7.130;2023-12-04T11:18:14;2.00;99.90
15617;DHT22;7908;51.688;7.130;2023-12-04T11:20:44;2.10;99.90
15617;DHT22;7908;51.688;7.130;2023-12-04T11:23:20;2.10;99.90
15617;DHT22;7908;51.688;7.130;2023-12-04T11:25:50;2.10;99.90
15617;DHT22;7908;51.688;7.130;2023-12-04T11:28:22;2.20;99.90
15617;DHT22;7908;51.688;7.130;2023-12-04T11:30:51;2.20;99.90
15617;DHT22;7908;51.688;7.130;2023-12-04T11:33:22;2.20;99.90
15617;DHT22;7908;51.688;7.130;2023-12-04T11:36:07;2.20;99.90
15617;DHT22;7908;51.688;7.130;2023-12-04T11:38:44;2.30;99.90
15617;DHT22;7908;51.688;7.130;2023-12-04T11:41:15;2.40;99.90
15617;DHT22;7908;51.688;7.130;2023-12-04T11:43:52;2.40;99.90
15617;DHT22;7908;51.688;7.130;2023-12-04T11:46:21;2.40;99.90
15617;DHT22;7908;51.688;7.130;2023-12-04T11:48:53;2.40;99.90
15617;DHT22;7908;51.688;7.130;2023-12-04T11:54:19;2.40;99.90
15617;DHT22;7908;51.688;7.130;2023-12-04T11:57:00;2.50;99.90
15617;DHT22;7908;51.688;7.130;2023-12-04T11:59:34;2.50;99.90
15617;DHT22;7908;51.688;7.130;2023-12-04T12:02:07;2.50;99.90
15617;DHT22;7908;51.688;7.130;2023-12-04T12:04:41;2.50;99.90
15617;DHT22;7908;51.688;7.130;2023-12-04T12:07:10;2.60;99.90
15617;DHT22;7908;51.688;7.130;2023-12-04T12:09:40;2.60;99.90
15617;DHT22;7908;51.688;7.130;2023-12-04T12:12:12;2.60;99.90
15617;DHT22;7908;51.688;7.130;2023-12-04T12:14:44;2.60;99.90
15617;DHT22;7908;51.688;7.130;2023-12-04T12:17:16;2.60;99.90
15617;DHT22;7908;51.688;7.130;2023-12-04T12:19:45;2.60;99.90
15617;DHT22;7908;51.688;7.130;2023-12-04T12:22:15;2.70;99.90
15617;DHT22;7908;51.688;7.130;2023-12-04T12:24:45;2.70;99.90
15617;DHT22;7908;51.688;7.130;2023-12-04T12:27:14;2.70;99.90
15617;DHT22;7908;51.688;7.130;2023-12-04T12:29:47;2.70;99.90
15617;DHT22;7908;51.688;7.130;2023-12-04T12:32:16;2.70;99.90
15617;DHT22;7908;51.688;7.130;2023-12-04T12:34:48;2.70;99.90
15617;DHT22;7908;51.688;7.130;2023-12-04T12:37:19;2.70;99.90
15617;DHT22;7908;51.688;7.130;2023-12-04T12:39:52;2.70;99.90
15617;DHT22;7908;51.688;7.130;2023-12-04T12:42:28;2.70;99.90
15617;DHT22;7908;51.688;7.130;2023-12-04T12:45:10;2.70;99.90
15617;DHT22;7908;51.688;7.130;2023-12-04T12:47:42;2.70;99.90
15617;DHT22;7908;51.688;7.130;2023-12-04T12:50:19;2.70;99.90
15617;DHT22;7908;51.688;7.130;2023-12-04T12:52:51;2.60;99.90
15617;DHT22;7908;51.688;7.130;2023-12-04T12:55:26;2.60;99.90
15617;DHT22;7908;51.688;7.130;2023-12-04T12:57:57;2.60;99.90
15617;DHT22;7908;51.688;7.130;2023-12-04T13:00:28;2.60;99.90
15617;DHT22;7908;51.688;7.130;2023-12-04T13:02:58;2.60;99.90
15617;DHT22;7908;51.688;7.130;2023-12-04T13:05:28;2.60;99.90
15617;DHT22;7908;51.688;7.130;2023-12-04T13:08:01;2.50;99.90
15617;DHT22;7908;51.688;7.130;2023-12-04T13:10:33;2.50;99.90
15617;DHT22;7908;51.688;7.130;2023-12-04T13:13:02;2.50;99.90
15617;DHT22;7908;51.688;7.130;2023-12-04T13:15:36;2.50;99.90
15617;DHT22;7908;51.688;7.130;2023-12-04T13:18:07;2.50;99.90
15617;DHT22;7908;51.688;7.130;2023-12-04T13:20:37;2.50;99.90
15617;DHT22;7908;51.688;7.130;2023-12-04T13:23:07;2.50;99.90
15617;DHT22;7908;51.688;7.130;2023-12-04T13:25:44;2.40;99.90
15617;DHT22;7908;51.688;7.130;2023-12-04T13:28:21;2.40;99.90
15617;DHT22;7908;51.688;7.130;2023-12-04T13:31:02;2.40;99.90
15617;DHT22;7908;51.688;7.130;2023-12-04T13:33:37;2.40;99.90
15617;DHT22;7908;51.688;7.130;2023-12-04T13:36:07;2.40;99.90
15617;DHT22;7908;51.688;7.130;2023-12-04T13:38:38;2.30;99.90
15617;DHT22;7908;51.688;7.130;2023-12-04T13:41:13;2.40;99.90
15617;DHT22;7908;51.688;7.130;2023-12-04T13:44:03;2.40;99.90
15617;DHT22;7908;51.688;7.130;2023-12-04T13:46:35;2.40;99.90
15617;DHT22;7908;51.688;7.130;2023-12-04T13:49:05;2.40;99.90
15617;DHT22;7908;51.688;7.130;2023-12-04T13:51:37;2.50;99.90
15617;DHT22;7908;51.688;7.130;2023-12-04T13:54:08;2.50;99.90
15617;DHT22;7908;51.688;7.130;2023-12-04T13:56:50;2.50;99.90
15617;DHT22;7908;51.688;7.130;2023-12-04T13:59:27;2.40;99.90
15617;DHT22;7908;51.688;7.130;2023-12-04T14:01:59;2.40;99.90
15617;DHT22;7908;51.688;7.130;2023-12-04T14:04:33;2.40;99.90
15617;DHT22;7908;51.688;7.130;2023-12-04T14:07:07;2.40;99.90
15617;DHT22;7908;51.688;7.130;2023-12-04T14:09:54;2.40;99.90
15617;DHT22;7908;51.688;7.130;2023-12-04T14:12:29;2.30;99.90
15617;DHT22;7908;51.688;7.130;2023-12-04T14:15:01;2.30;99.90
15617;DHT22;7908;51.688;7.130;2023-12-04T14:17:34;2.20;99.90
15617;DHT22;7908;51.688;7.130;2023-12-04T14:20:11;2.20;99.90
15617;DHT22;7908;51.688;7.130;2023-12-04T14:22:47;2.10;99.90
15617;DHT22;7908;51.688;7.130;2023-12-04T14:25:23;2.10;99.90
15617;DHT22;7908;51.688;7.130;2023-12-04T14:27:56;2.10;99.90
15617;DHT22;7908;51.688;7.130;2023-12-04T14:30:30;2.10;99.90
15617;DHT22;7908;51.688;7.130;2023-12-04T14:33:03;2.00;99.90
15617;DHT22;7908;51.688;7.130;2023-12-04T14:35:36;2.00;99.90
15617;DHT22;7908;51.688;7.130;2023-12-04T14:38:12;2.00;99.90
15617;DHT22;7908;51.688;7.130;2023-12-04T14:40:45;2.00;99.90
15617;DHT22;7908;51.688;7.130;2023-12-04T14:43:19;2.00;99.90
15617;DHT22;7908;51.688;7.130;2023-12-04T14:45:51;2.00;99.90
15617;DHT22;7908;51.688;7.130;2023-12-04T14:48:26;2.10;99.90
15617;DHT22;7908;51.688;7.130;2023-12-04T14:51:01;2.10;99.90
15617;DHT22;7908;51.688;7.130;2023-12-04T14:53:40;2.00;99.90
15617;DHT22;7908;51.688;7.130;2023-12-04T14:56:20;2.10;99.90
15617;DHT22;7908;51.688;7.130;2023-12-04T14:59:16;2.10;99.90
15617;DHT22;7908;51.688;7.130;2023-12-04T15:02:01;2.10;99.90
15617;DHT22;7908;51.688;7.130;2023-12-04T15:04:53;2.10;99.90
15617;DHT22;7908;51.688;7.130;2023-12-04T15:07:40;2.20;99.90
15617;DHT22;7908;51.688;7.130;2023-12-04T15:10:33;2.20;99.90
15617;DHT22;7908;51.688;7.130;2023-12-04T15:13:23;2.20;99.90
15617;DHT22;7908;51.688;7.130;2023-12-04T15:16:21;2.20;99.90
15617;DHT22;7908;51.688;7.130;2023-12-04T15:19:09;2.20;99.90
15617;DHT22;7908;51.688;7.130;2023-12-04T15:21:57;2.20;99.90
15617;DHT22;7908;51.688;7.130;2023-12-04T15:24:30;2.20;99.90
15617;DHT22;7908;51.688;7.130;2023-12-04T15:27:03;2.20;99.90
15617;DHT22;7908;51.688;7.130;2023-12-04T15:29:33;2.20;99.90
15617;DHT22;7908;51.688;7.130;2023-12-04T15:32:12;2.20;99.90
15617;DHT22;7908;51.688;7.130;2023-12-04T15:34:40;2.30;99.90
15617;DHT22;7908;51.688;7.130;2023-12-04T15:37:09;2.20;99.90
15617;DHT22;7908;51.688;7.130;2023-12-04T15:39:37;2.30;99.90
15617;DHT22;7908;51.688;7.130;2023-12-04T15:42:08;2.30;99.90
15617;DHT22;7908;51.688;7.130;2023-12-04T15:44:37;2.30;99.90
15617;DHT22;7908;51.688;7.130;2023-12-04T15:47:06;2.30;99.90
15617;DHT22;7908;51.688;7.130;2023-12-04T15:49:36;2.30;99.90
15617;DHT22;7908;51.688;7.130;2023-12-04T15:52:07;2.40;99.90
15617;DHT22;7908;51.688;7.130;2023-12-04T15:54:38;2.40;99.90
15617;DHT22;7908;51.688;7.130;2023-12-04T15:57:10;2.40;99.90
15617;DHT22;7908;51.688;7.130;2023-12-04T15:59:46;2.50;99.90
15617;DHT22;7908;51.688;7.130;2023-12-04T16:02:13;2.50;99.90
15617;DHT22;7908;51.688;7.130;2023-12-04T16:04:44;2.50;99.90
15617;DHT22;7908;51.688;7.130;2023-12-04T16:07:15;2.50;99.90
15617;DHT22;7908;51.688;7.130;2023-12-04T16:09:49;2.50;99.90
15617;DHT22;7908;51.688;7.130;2023-12-04T16:12:23;2.60;99.90
15617;DHT22;7908;51.688;7.130;2023-12-04T16:14:52;2.60;99.90
15617;DHT22;7908;51.688;7.130;2023-12-04T16:17:24;2.60;99.90
15617;DHT22;7908;51.688;7.130;2023-12-04T16:20:09;2.60;99.90
15617;DHT22;7908;51.688;7.130;2023-12-04T16:22:45;2.60;99.90
15617;DHT22;7908;51.688;7.130;2023-12-04T16:25:20;2.50;99.90
15617;DHT22;7908;51.688;7.130;2023-12-04T16:27:52;2.50;99.90
15617;DHT22;7908;51.688;7.130;2023-12-04T16:30:29;2.60;99.90